Time;durP1;ratioP1;P1;durP2;ratioP2;P2;SDS_P1;SDS_P2;PMS_P1;PMS_P2;Temp;Humidity;BMP_temperature;BMP_pressure;BME280_temperature;BME280_humidity;BME280_pressure;Samples;Min_cycle;Max_cycle;Signal;HPM_P1;HPM_P2
2023/06/19 00:01:09;;;;;;;11.43;8.90;;;;;;;22.03;59.61;100693.56;5111852;28;20055;-60
2023/06/19 00:03:34;;;;;;;8.85;8.05;;;;;;;21.85;61.73;100705.47;5122647;28;20117;-59
2023/06/19 00:06:01;;;;;;;10.07;9.13;;;;;;;21.89;60.94;100708.69;5132721;28;20027;-60
2023/06/19 00:08:27;;;;;;;11.13;8.27;;;;;;;21.84;61.05;100706.50;5127587;28;20016;-59
2023/06/19 00:10:52;;;;;;;10.82;8.50;;;;;;;21.84;60.88;100711.06;5111880;28;20024;-59
2023/06/19 00:13:18;;;;;;;12.70;8.35;;;;;;;21.78;61.18;100720.72;5093991;28;20033;-59
2023/06/19 00:15:44;;;;;;;9.45;8.40;;;;;;;21.75;61.17;100718.38;5093297;28;20383;-59
2023/06/19 00:18:12;;;;;;;8.90;8.10;;;;;;;21.78;61.22;100726.16;5111762;28;20019;-59
2023/06/19 00:20:39;;;;;;;10.45;8.73;;;;;;;21.64;61.49;100724.97;5113121;28;20028;-59
2023/06/19 00:23:11;;;;;;;9.43;8.45;;;;;;;21.61;62.02;100733.44;5112062;28;20035;-60
2023/06/19 00:25:36;;;;;;;9.52;8.63;;;;;;;21.44;62.75;100732.66;5111778;28;20055;-60
2023/06/19 00:28:01;;;;;;;10.13;9.13;;;;;;;21.54;61.77;100732.47;5112078;28;20052;-59
2023/06/19 00:30:32;;;;;;;10.25;9.35;;;;;;;21.38;62.92;100737.88;5111327;28;20428;-60
2023/06/19 00:33:02;;;;;;;9.77;8.77;;;;;;;21.41;62.69;100738.38;5110986;28;20551;-59
2023/06/19 00:35:27;;;;;;;13.23;8.73;;;;;;;21.36;62.87;100748.88;5111656;28;20031;-59
2023/06/19 00:37:55;;;;;;;9.75;8.63;;;;;;;21.36;62.98;100746.19;5112664;28;20051;-60
2023/06/19 00:40:32;;;;;;;9.13;8.05;;;;;;;21.23;63.31;100746.63;5114411;28;20080;-59
2023/06/19 00:42:58;;;;;;;8.93;8.02;;;;;;;21.23;63.03;100759.31;5097287;28;20044;-59
2023/06/19 00:45:25;;;;;;;9.02;8.20;;;;;;;21.22;63.23;100754.94;5096708;28;20031;-59
2023/06/19 00:47:52;;;;;;;10.68;8.52;;;;;;;21.11;63.36;100756.09;5097769;28;20031;-59
2023/06/19 00:50:17;;;;;;;8.52;7.72;;;;;;;21.06;63.70;100753.03;5115737;28;20016;-59
2023/06/19 00:52:43;;;;;;;8.85;8.05;;;;;;;21.01;63.85;100760.84;5115931;28;20047;-59
2023/06/19 00:55:10;;;;;;;9.80;8.82;;;;;;;21.05;64.00;100763.00;5115368;27;20032;-59
2023/06/19 00:57:36;;;;;;;11.05;8.18;;;;;;;20.95;64.17;100767.75;5097625;28;20048;-59
2023/06/19 01:00:05;;;;;;;9.05;7.45;;;;;;;20.89;64.41;100767.56;5096152;28;20123;-59
2023/06/19 01:02:33;;;;;;;14.82;8.23;;;;;;;20.85;64.45;100754.41;5097404;28;20019;-59
2023/06/19 01:04:58;;;;;;;10.48;8.10;;;;;;;20.80;65.03;100772.13;5115013;28;20494;-59
2023/06/19 01:07:41;;;;;;;9.68;7.80;;;;;;;20.84;64.51;100771.59;5115588;28;20030;-59
2023/06/19 01:10:10;;;;;;;9.48;8.20;;;;;;;20.76;65.51;100768.03;5115398;28;20073;-59
2023/06/19 01:12:40;;;;;;;11.00;8.10;;;;;;;20.71;65.91;100773.94;5097653;28;20068;-59
2023/06/19 01:15:08;;;;;;;10.95;8.43;;;;;;;20.71;65.64;100767.72;5096068;28;20027;-59
2023/06/19 01:17:35;;;;;;;7.85;7.13;;;;;;;20.72;66.33;100780.19;5115355;28;20390;-59
2023/06/19 01:20:06;;;;;;;9.32;7.93;;;;;;;20.67;66.26;100769.03;5114945;28;20563;-59
2023/06/19 01:22:32;;;;;;;16.17;7.50;;;;;;;20.63;66.80;100772.06;5115221;28;20019;-59
2023/06/19 01:24:57;;;;;;;8.50;6.65;;;;;;;20.66;66.85;100778.16;5114287;28;20023;-59
2023/06/19 01:27:31;;;;;;;8.85;6.50;;;;;;;20.59;67.00;100769.88;5115751;27;20436;-59
2023/06/19 01:30:01;;;;;;;9.07;6.35;;;;;;;20.50;67.60;100777.06;5114276;28;20027;-59
2023/06/19 01:32:44;;;;;;;9.07;6.30;;;;;;;20.56;67.31;100772.88;5114967;28;20023;-60
2023/06/19 01:35:14;;;;;;;7.30;6.68;;;;;;;20.43;68.20;100766.03;5114518;28;20378;-59
2023/06/19 01:37:41;;;;;;;8.18;6.57;;;;;;;20.43;68.48;100778.72;5115243;28;20085;-60
2023/06/19 01:40:09;;;;;;;9.90;6.35;;;;;;;20.35;68.84;100776.84;5114554;28;20045;-59
2023/06/19 01:42:38;;;;;;;7.57;6.85;;;;;;;20.43;68.66;100793.06;5112369;28;20557;-60
2023/06/19 01:45:05;;;;;;;6.90;5.95;;;;;;;20.42;69.34;100785.13;5101821;27;20019;-59
2023/06/19 01:47:31;;;;;;;6.65;6.05;;;;;;;20.26;69.84;100783.19;5116793;27;20431;-59
2023/06/19 01:49:56;;;;;;;6.75;6.15;;;;;;;20.29;69.91;100787.41;5096471;28;20049;-59
2023/06/19 01:52:24;;;;;;;7.07;6.38;;;;;;;20.19;70.39;100788.38;5113627;28;20032;-59
2023/06/19 01:54:49;;;;;;;6.50;5.90;;;;;;;20.12;70.81;100787.34;5113475;28;20024;-59
2023/06/19 01:57:15;;;;;;;8.18;5.82;;;;;;;20.15;71.33;100795.13;5112415;28;20039;-59
2023/06/19 01:59:40;;;;;;;9.57;5.88;;;;;;;20.09;71.55;100803.00;5113615;28;20032;-59
2023/06/19 02:02:06;;;;;;;5.80;5.20;;;;;;;20.06;72.08;100804.19;5114559;27;20080;-60
2023/06/19 02:04:32;;;;;;;6.70;5.22;;;;;;;20.05;71.94;100799.78;5113692;28;20019;-59
2023/06/19 02:06:57;;;;;;;5.50;5.00;;;;;;;19.94;72.68;100800.03;5114182;28;20056;-59
2023/06/19 02:09:23;;;;;;;5.47;4.93;;;;;;;19.99;72.73;100808.53;5114437;28;20499;-59
2023/06/19 02:11:48;;;;;;;7.35;5.00;;;;;;;20.05;72.71;100807.03;5113297;28;20027;-59
2023/06/19 02:14:14;;;;;;;5.35;4.50;;;;;;;20.00;73.43;100814.75;5083247;28;20423;-59
2023/06/19 02:16:43;;;;;;;5.45;4.95;;;;;;;19.90;73.96;100815.72;5109916;28;20035;-59
2023/06/19 02:19:10;;;;;;;;;;;;;;;20.08;72.32;100810.25;5106205;28;20032;-59
2023/06/19 02:21:35;;;;;;;6.47;4.50;;;;;;;19.87;74.51;100805.25;5094689;28;19997;-59
2023/06/19 02:24:01;;;;;;;4.53;4.13;;;;;;;19.83;75.11;100816.53;5095201;28;20024;-60
2023/06/19 02:26:28;;;;;;;6.43;4.38;;;;;;;19.83;75.32;100811.13;5094696;28;20020;-59
2023/06/19 02:28:54;;;;;;;4.30;3.90;;;;;;;19.78;75.26;100817.00;5093898;28;20493;-60
2023/06/19 02:31:22;;;;;;;4.78;4.20;;;;;;;19.78;75.87;100819.69;5095904;28;20028;-59
2023/06/19 02:33:48;;;;;;;7.18;4.65;;;;;;;19.69;76.21;100797.19;5101070;28;20019;-59
2023/06/19 02:36:19;;;;;;;7.93;4.30;;;;;;;19.66;76.77;100820.94;5112810;28;20366;-59
2023/06/19 02:38:48;;;;;;;4.90;4.00;;;;;;;19.68;76.86;100816.25;5089295;28;20554;-59
2023/06/19 02:41:15;;;;;;;4.47;3.85;;;;;;;19.65;77.12;100816.56;5102814;28;20073;-59
2023/06/19 02:43:45;;;;;;;4.63;4.20;;;;;;;19.64;77.09;100823.75;5092861;28;20051;-59
2023/06/19 02:46:11;;;;;;;4.82;4.38;;;;;;;19.70;77.16;100823.16;5111744;28;20045;-59
2023/06/19 02:48:36;;;;;;;4.68;4.15;;;;;;;19.64;77.17;100810.25;5093254;28;20533;-59
2023/06/19 02:51:02;;;;;;;4.95;4.50;;;;;;;19.60;77.98;100822.38;5108222;28;20024;-59
2023/06/19 02:53:27;;;;;;;7.00;4.50;;;;;;;19.48;78.60;100816.38;5114288;27;20016;-59
2023/06/19 02:55:52;;;;;;;6.03;4.15;;;;;;;19.60;78.05;100824.25;5111218;28;20022;-59
2023/06/19 02:58:18;;;;;;;5.35;4.22;;;;;;;19.54;78.59;100828.41;5094210;28;20386;-59
2023/06/19 03:00:44;;;;;;;4.88;4.05;;;;;;;19.52;78.70;100819.59;5104706;28;20051;-59
2023/06/19 03:03:09;;;;;;;7.05;4.30;;;;;;;19.48;79.01;100829.88;5103049;28;20375;-59
2023/06/19 03:05:35;;;;;;;5.20;4.65;;;;;;;19.47;79.20;100827.31;5110402;28;20088;-59
2023/06/19 03:08:00;;;;;;;4.65;4.22;;;;;;;19.43;79.47;100828.63;5091075;28;20035;-59
2023/06/19 03:10:28;;;;;;;4.15;3.83;;;;;;;19.40;79.98;100837.03;5107491;28;20036;-59
2023/06/19 03:12:53;;;;;;;4.80;4.22;;;;;;;19.39;79.89;100841.59;5092180;28;20027;-59
2023/06/19 03:15:19;;;;;;;5.07;4.63;;;;;;;19.34;80.18;100841.19;5093490;28;20031;-60
2023/06/19 03:17:44;;;;;;;6.28;4.60;;;;;;;19.32;80.74;100845.03;5111711;28;20379;-59
2023/06/19 03:20:12;;;;;;;7.00;5.43;;;;;;;19.22;81.08;100839.75;5094537;28;20118;-59
2023/06/19 03:22:41;;;;;;;5.15;4.65;;;;;;;19.29;80.78;100848.91;5112875;28;20024;-59
2023/06/19 03:25:07;;;;;;;5.00;4.60;;;;;;;19.30;80.63;100853.31;5093488;28;20061;-59
2023/06/19 03:27:32;;;;;;;5.90;5.18;;;;;;;19.18;81.48;100851.84;5094839;28;20054;-59
2023/06/19 03:29:58;;;;;;;6.20;4.80;;;;;;;19.19;81.69;100850.81;5111862;28;20031;-59
2023/06/19 03:32:23;;;;;;;6.28;5.28;;;;;;;19.09;81.90;100842.81;5112495;28;20456;-60
2023/06/19 03:34:49;;;;;;;8.45;5.13;;;;;;;19.12;82.37;100853.28;5112478;28;20031;-59
2023/06/19 03:37:15;;;;;;;6.18;5.60;;;;;;;19.10;82.55;100852.59;5110075;28;20110;-60
2023/06/19 03:39:40;;;;;;;6.10;5.50;;;;;;;19.08;83.04;100859.13;5110915;28;20085;-59
2023/06/19 03:42:06;;;;;;;12.43;5.63;;;;;;;19.08;83.29;100857.28;5112264;28;20023;-59
2023/06/19 03:44:31;;;;;;;6.10;5.35;;;;;;;19.09;83.29;100866.22;5117974;27;20127;-59
2023/06/19 03:46:57;;;;;;;5.88;5.30;;;;;;;19.00;83.96;100867.97;5108142;28;20026;-59
2023/06/19 03:49:22;;;;;;;5.43;4.93;;;;;;;19.04;84.09;100866.69;5093876;28;20059;-59
2023/06/19 03:51:54;;;;;;;6.28;5.13;;;;;;;19.09;84.20;100872.47;5112339;28;20027;-59
2023/06/19 03:54:20;;;;;;;5.72;5.22;;;;;;;19.09;84.48;100869.78;5093606;28;20103;-59
2023/06/19 03:56:45;;;;;;;7.30;6.15;;;;;;;19.16;84.61;100884.34;5101014;28;20095;-59
2023/06/19 03:59:11;;;;;;;7.28;5.32;;;;;;;19.23;84.33;100896.19;5110680;28;20375;-59
2023/06/19 04:01:36;;;;;;;8.25;5.70;;;;;;;19.27;84.44;100891.38;5112024;28;20447;-59
2023/06/19 04:04:01;;;;;;;6.97;5.78;;;;;;;19.27;84.40;100889.53;5110364;28;20027;-59
2023/06/19 04:06:27;;;;;;;8.45;5.82;;;;;;;19.23;84.73;100896.19;5085526;28;20031;-59
2023/06/19 04:08:52;;;;;;;6.32;5.70;;;;;;;19.26;84.80;100905.84;5111318;28;20032;-59
2023/06/19 04:11:18;;;;;;;6.05;5.50;;;;;;;19.26;85.01;100900.44;5082895;28;20514;-60
2023/06/19 04:13:45;;;;;;;6.88;5.63;;;;;;;19.30;85.41;100904.56;5100355;28;20398;-60
2023/06/19 04:16:11;;;;;;;6.18;5.65;;;;;;;19.26;85.48;100903.13;5113410;28;20027;-59
2023/06/19 04:18:36;;;;;;;6.13;5.53;;;;;;;19.20;85.39;100898.34;5099831;28;20016;-59
2023/06/19 04:21:02;;;;;;;6.15;5.55;;;;;;;19.24;85.89;100907.84;5115950;28;20050;-60
2023/06/19 04:23:27;;;;;;;7.15;5.72;;;;;;;19.29;85.57;100916.31;5114908;28;20089;-60
2023/06/19 04:25:52;;;;;;;6.38;5.78;;;;;;;19.31;85.81;100917.03;5115523;28;20024;-60
2023/06/19 04:28:18;;;;;;;10.55;6.30;;;;;;;19.29;86.16;100919.00;5115893;28;20028;-59
2023/06/19 04:30:43;;;;;;;8.82;6.60;;;;;;;19.22;86.15;100897.22;5115489;28;20378;-59
2023/06/19 04:33:08;;;;;;;7.03;6.13;;;;;;;19.37;85.87;100923.66;5115943;28;20032;-59
2023/06/19 04:35:39;;;;;;;9.68;5.78;;;;;;;19.40;86.16;100929.59;5116442;27;20497;-60
2023/06/19 04:38:08;;;;;;;8.13;6.47;;;;;;;19.31;86.30;100921.56;5115784;28;20375;-59
2023/06/19 04:40:36;;;;;;;6.82;6.15;;;;;;;19.37;86.75;100937.16;5114514;28;20034;-59
2023/06/19 04:43:02;;;;;;;8.48;6.03;;;;;;;19.38;86.55;100931.59;5114375;28;20497;-59
2023/06/19 04:45:28;;;;;;;7.93;6.38;;;;;;;19.30;86.82;100926.13;5096795;28;20042;-59
2023/06/19 04:47:53;;;;;;;8.98;6.22;;;;;;;19.44;86.62;100935.53;5097243;28;20428;-59
2023/06/19 04:50:19;;;;;;;9.40;5.93;;;;;;;19.43;86.56;100936.53;5097096;28;20465;-59
2023/06/19 04:52:45;;;;;;;6.53;5.78;;;;;;;19.56;86.06;100946.94;5108655;27;20028;-59
2023/06/19 04:55:10;;;;;;;8.73;6.68;;;;;;;19.52;86.32;100938.31;5115170;28;20027;-59
2023/06/19 04:57:36;;;;;;;7.30;5.93;;;;;;;19.54;86.28;100930.94;5115231;28;20393;-59
2023/06/19 05:00:07;;;;;;;7.53;6.28;;;;;;;19.53;86.44;100942.72;5093446;28;20363;-60
2023/06/19 05:02:33;;;;;;;7.65;6.85;;;;;;;19.54;86.47;100946.28;5092090;28;20023;-59
2023/06/19 05:05:03;;;;;;;8.23;7.05;;;;;;;19.56;86.53;100945.13;5097976;28;20054;-59
2023/06/19 05:07:32;;;;;;;7.85;6.45;;;;;;;19.54;86.90;100944.41;5096190;28;20043;-59
2023/06/19 05:09:58;;;;;;;9.68;7.18;;;;;;;19.57;86.35;100944.13;5113764;28;20124;-59
2023/06/19 05:12:23;;;;;;;8.50;6.90;;;;;;;19.56;86.43;100945.13;5109944;28;20032;-59
2023/06/19 05:14:49;;;;;;;7.85;6.47;;;;;;;19.63;86.53;100948.06;5087174;28;20039;-59
2023/06/19 05:17:16;;;;;;;8.05;7.15;;;;;;;19.65;86.39;100957.72;5114449;28;20466;-59
2023/06/19 05:19:42;;;;;;;7.18;6.50;;;;;;;19.64;86.27;100961.38;5095475;28;20497;-59
2023/06/19 05:22:07;;;;;;;7.55;6.65;;;;;;;19.63;86.18;100959.69;5100398;28;20107;-59
2023/06/19 05:24:33;;;;;;;8.07;7.10;;;;;;;19.63;86.37;100975.03;5113585;28;20036;-59
2023/06/19 05:26:58;;;;;;;7.68;6.97;;;;;;;19.64;86.61;100960.53;5098234;28;20437;-59
2023/06/19 05:29:24;;;;;;;8.65;7.78;;;;;;;19.66;85.75;100967.50;5098142;28;20375;-59
2023/06/19 05:31:50;;;;;;;7.93;7.20;;;;;;;19.61;86.38;100969.78;5095174;28;20735;-60
2023/06/19 05:34:17;;;;;;;9.00;7.00;;;;;;;19.62;86.12;100968.78;5096316;28;20035;-59
2023/06/19 05:36:46;;;;;;;7.70;6.78;;;;;;;19.55;86.70;100959.59;5114572;28;20030;-60
2023/06/19 05:39:12;;;;;;;;;;;;;;;19.73;85.40;100976.69;5108221;28;20032;-60
2023/06/19 05:41:40;;;;;;;9.27;7.00;;;;;;;19.59;85.84;100965.53;5094049;28;19931;-59
2023/06/19 05:44:05;;;;;;;9.57;7.15;;;;;;;19.58;86.34;100963.84;5096507;28;20109;-59
2023/06/19 05:46:31;;;;;;;7.68;6.88;;;;;;;19.59;86.23;100970.94;5110500;28;20039;-59
2023/06/19 05:48:56;;;;;;;8.73;7.80;;;;;;;19.68;85.60;100978.16;5094875;28;20478;-60
2023/06/19 05:51:22;;;;;;;9.32;8.40;;;;;;;19.65;85.24;100971.22;5114310;28;20066;-59
2023/06/19 05:53:50;;;;;;;7.85;7.00;;;;;;;19.76;85.41;100977.38;5114295;28;20024;-59
2023/06/19 05:56:16;;;;;;;8.68;7.82;;;;;;;19.85;83.39;100973.75;5110817;28;20022;-59
2023/06/19 05:58:41;;;;;;;9.10;8.25;;;;;;;19.83;82.84;100963.13;5113414;28;20055;-59
2023/06/19 06:01:09;;;;;;;8.85;8.10;;;;;;;20.04;82.80;100973.63;5107428;28;20534;-59
2023/06/19 06:03:35;;;;;;;10.02;8.13;;;;;;;20.04;81.75;100979.00;5111821;28;20015;-59
2023/06/19 06:06:02;;;;;;;9.07;8.00;;;;;;;20.11;81.42;100985.47;5088772;28;20023;-59
2023/06/19 06:08:29;;;;;;;11.32;8.50;;;;;;;20.10;81.23;100989.19;5094441;28;20129;-59
2023/06/19 06:10:54;;;;;;;9.15;8.25;;;;;;;20.13;80.98;100993.44;5093406;28;20054;-59
2023/06/19 06:13:20;;;;;;;8.88;7.97;;;;;;;20.08;80.14;100988.50;5108599;28;20054;-59
2023/06/19 06:15:45;;;;;;;10.05;9.15;;;;;;;20.08;79.69;101015.50;5111022;28;20360;-59
2023/06/19 06:18:11;;;;;;;9.43;8.57;;;;;;;20.08;78.86;101004.69;5086710;28;20036;-60
2023/06/19 06:20:39;;;;;;;10.15;9.15;;;;;;;20.07;77.57;101010.25;5105831;28;20024;-59
2023/06/19 06:23:04;;;;;;;10.45;9.57;;;;;;;20.08;77.89;101018.19;5083518;28;20475;-60
2023/06/19 06:25:32;;;;;;;11.75;10.73;;;;;;;20.02;76.49;101016.13;5090754;28;20095;-60
2023/06/19 06:27:57;;;;;;;10.68;9.68;;;;;;;20.10;77.52;101023.44;5111824;28;20111;-61
2023/06/19 06:30:23;;;;;;;10.15;9.25;;;;;;;20.18;76.84;101020.84;5113131;28;20477;-61
2023/06/19 06:32:49;;;;;;;10.15;9.27;;;;;;;20.24;76.95;101022.06;5095328;28;20034;-61
2023/06/19 06:35:15;;;;;;;9.70;9.00;;;;;;;20.39;76.44;101032.16;5112722;28;20086;-60
2023/06/19 06:37:41;;;;;;;10.50;9.13;;;;;;;20.46;76.09;101031.53;5113012;28;20031;-60
2023/06/19 06:40:14;;;;;;;14.10;10.45;;;;;;;20.53;74.29;101041.59;5094801;28;20527;-65
2023/06/19 06:42:40;;;;;;;11.05;10.05;;;;;;;20.51;74.29;101037.31;5113286;28;20092;-59
2023/06/19 06:45:06;;;;;;;11.45;9.73;;;;;;;20.57;74.14;101047.53;5109426;28;20539;-59
2023/06/19 06:47:32;;;;;;;12.77;9.80;;;;;;;20.57;73.65;101048.38;5108834;28;20106;-59
2023/06/19 06:49:57;;;;;;;11.27;10.38;;;;;;;20.66;74.04;101057.38;5112058;28;20019;-59
2023/06/19 06:52:23;;;;;;;11.60;10.23;;;;;;;20.77;73.19;101062.56;5113339;28;20034;-60
2023/06/19 06:54:51;;;;;;;11.88;10.77;;;;;;;20.78;72.49;101052.56;5113416;28;20034;-59
2023/06/19 06:57:17;;;;;;;10.35;9.02;;;;;;;20.87;72.12;101054.31;5094290;28;20394;-59
2023/06/19 06:59:42;;;;;;;10.38;9.38;;;;;;;20.84;72.04;101062.75;5112617;28;20024;-59
2023/06/19 07:02:10;;;;;;;12.02;10.93;;;;;;;20.85;72.01;101059.03;5094260;28;20431;-59
2023/06/19 07:04:35;;;;;;;11.57;10.57;;;;;;;20.78;71.54;101061.53;5094397;28;20024;-60
2023/06/19 07:07:03;;;;;;;10.80;9.80;;;;;;;20.86;70.62;101066.16;5112760;28;20152;-59
2023/06/19 07:09:29;;;;;;;13.35;10.85;;;;;;;20.83;70.85;101077.28;5112984;28;20112;-59
2023/06/19 07:11:54;;;;;;;12.70;10.15;;;;;;;20.92;70.86;101078.19;5112966;28;20051;-60
2023/06/19 07:14:22;;;;;;;12.02;10.75;;;;;;;20.86;69.76;101077.81;5113077;28;20459;-60
2023/06/19 07:16:50;;;;;;;11.60;10.60;;;;;;;20.94;69.79;101089.69;5112209;28;20028;-59
2023/06/19 07:19:15;;;;;;;11.75;10.57;;;;;;;20.93;69.36;101080.72;5094068;28;20020;-59
2023/06/19 07:21:42;;;;;;;10.93;9.73;;;;;;;21.12;69.80;101081.50;5112823;28;20030;-59
2023/06/19 07:24:08;;;;;;;10.77;9.77;;;;;;;21.21;69.81;101094.09;5094358;28;20051;-60
2023/06/19 07:26:35;;;;;;;10.95;9.93;;;;;;;21.33;69.79;101099.06;5094475;28;20386;-59
2023/06/19 07:29:04;;;;;;;10.75;9.65;;;;;;;21.36;68.54;101092.53;5111976;28;20019;-59
2023/06/19 07:31:29;;;;;;;10.23;9.23;;;;;;;21.34;68.11;101083.69;5111668;28;20367;-59
2023/06/19 07:33:54;;;;;;;10.40;9.23;;;;;;;21.38;68.07;101085.06;5107481;28;20055;-60
2023/06/19 07:36:23;;;;;;;16.20;8.90;;;;;;;21.51;68.35;101095.47;5110164;27;20011;-59
2023/06/19 07:38:48;;;;;;;12.00;9.93;;;;;;;21.51;67.68;101095.47;5099789;28;20026;-60
2023/06/19 07:41:14;;;;;;;11.30;10.30;;;;;;;21.47;67.27;101092.25;5093149;28;20032;-59
2023/06/19 07:43:39;;;;;;;10.43;9.50;;;;;;;21.52;68.17;101108.00;5106513;28;20042;-59
2023/06/19 07:46:04;;;;;;;11.38;10.13;;;;;;;21.52;67.07;101113.41;5109093;28;20031;-59
2023/06/19 07:48:30;;;;;;;11.35;10.25;;;;;;;21.39;67.12;101100.31;5108651;28;20034;-59
2023/06/19 07:50:55;;;;;;;10.68;9.60;;;;;;;21.44;67.35;101099.81;5091884;28;20482;-59
2023/06/19 07:53:21;;;;;;;12.82;10.13;;;;;;;21.58;67.98;101095.66;5111856;28;20030;-59
2023/06/19 07:55:46;;;;;;;11.70;9.00;;;;;;;21.69;67.61;101101.63;5112051;28;20034;-59
2023/06/19 07:58:14;;;;;;;12.65;9.75;;;;;;;21.61;66.28;101103.47;5111278;28;20043;-60
2023/06/19 08:00:40;;;;;;;11.00;9.90;;;;;;;21.60;65.61;101107.19;5091021;28;20031;-59
2023/06/19 08:03:05;;;;;;;10.65;8.98;;;;;;;21.69;66.73;101104.34;5093294;28;20039;-59
2023/06/19 08:05:33;;;;;;;11.57;9.07;;;;;;;21.65;66.72;101113.81;5111516;28;20445;-59
2023/06/19 08:08:03;;;;;;;10.23;8.60;;;;;;;21.52;65.49;101110.69;5111285;28;20031;-60
2023/06/19 08:10:28;;;;;;;10.82;8.82;;;;;;;21.71;65.07;101115.88;5111317;28;20483;-59
2023/06/19 08:12:54;;;;;;;8.57;7.82;;;;;;;21.84;65.20;101117.25;5111510;28;20088;-60
2023/06/19 08:15:19;;;;;;;9.93;9.00;;;;;;;21.77;64.37;101098.13;5100866;28;20390;-59
2023/06/19 08:17:44;;;;;;;10.25;8.00;;;;;;;21.68;65.11;101115.34;5075284;28;20447;-59
2023/06/19 08:20:10;;;;;;;8.95;8.00;;;;;;;21.89;64.83;101114.94;5097435;28;20107;-60
2023/06/19 08:22:36;;;;;;;19.20;9.52;;;;;;;21.84;64.21;101118.09;5107352;28;20028;-60
2023/06/19 08:25:02;;;;;;;10.40;8.93;;;;;;;21.75;65.12;101106.41;5104057;28;20122;-59
2023/06/19 08:27:28;;;;;;;10.63;8.75;;;;;;;21.83;65.38;101099.34;5093593;28;20084;-60
2023/06/19 08:29:53;;;;;;;13.02;9.50;;;;;;;21.83;63.82;101112.88;5092642;28;20035;-60
2023/06/19 08:32:19;;;;;;;13.52;9.30;;;;;;;21.83;64.53;101127.25;5111901;28;20030;-59
2023/06/19 08:34:47;;;;;;;10.48;9.07;;;;;;;21.78;65.10;101121.47;5111928;28;20062;-60
2023/06/19 08:37:13;;;;;;;9.93;8.93;;;;;;;21.75;65.05;101130.78;5111850;28;20024;-60
2023/06/19 08:39:39;;;;;;;10.77;8.80;;;;;;;21.83;65.67;101131.84;5111254;28;20043;-60
2023/06/19 08:42:11;;;;;;;9.73;7.85;;;;;;;21.89;65.59;101136.59;5093646;28;20428;-60
2023/06/19 08:44:37;;;;;;;11.40;8.40;;;;;;;21.95;65.75;101141.34;5110979;28;20039;-60
2023/06/19 08:47:05;;;;;;;8.85;7.88;;;;;;;22.06;64.81;101140.19;5111257;28;20193;-59
2023/06/19 08:49:34;;;;;;;11.88;10.60;;;;;;;22.12;64.38;101139.50;5111689;28;20361;-60
2023/06/19 08:52:01;;;;;;;14.57;8.98;;;;;;;22.20;64.51;101134.16;5111864;28;20024;-59
2023/06/19 08:54:27;;;;;;;12.80;8.25;;;;;;;22.23;63.60;101140.09;5111941;28;20057;-60
2023/06/19 08:56:55;;;;;;;14.35;9.13;;;;;;;22.49;64.58;101149.13;5093499;28;20032;-59
2023/06/19 08:59:21;;;;;;;12.77;9.17;;;;;;;22.62;62.99;101157.63;5111189;28;20080;-59
2023/06/19 09:01:51;;;;;;;12.90;8.98;;;;;;;22.53;61.28;101153.19;5114367;28;20261;-60
2023/06/19 09:04:21;;;;;;;9.65;8.52;;;;;;;22.55;62.38;101149.31;5115393;28;20110;-60
2023/06/19 09:06:51;;;;;;;10.30;9.18;;;;;;;22.76;61.95;101154.22;5096884;28;20027;-60
2023/06/19 09:09:20;;;;;;;10.35;8.13;;;;;;;22.98;61.21;101165.47;5097094;28;20390;-60
2023/06/19 09:12:07;;;;;;;10.73;9.73;;;;;;;22.90;60.38;101167.13;5115248;28;20024;-60
2023/06/19 09:14:36;;;;;;;13.27;9.32;;;;;;;22.84;60.03;101167.78;5115059;28;20027;-60
2023/06/19 09:17:04;;;;;;;15.35;9.23;;;;;;;22.76;59.71;101162.38;5114855;28;20027;-60
2023/06/19 09:19:30;;;;;;;12.18;8.75;;;;;;;22.83;59.89;101163.41;5096865;28;20084;-59
2023/06/19 09:22:00;;;;;;;9.75;8.57;;;;;;;22.92;59.68;101164.25;5096847;28;20020;-60
2023/06/19 09:24:33;;;;;;;16.80;8.77;;;;;;;23.02;59.07;101189.38;5114941;28;21891;-60
2023/06/19 09:27:14;;;;;;;9.73;8.63;;;;;;;23.19;58.82;101182.06;5114840;28;20102;-60
2023/06/19 09:29:41;;;;;;;12.13;9.60;;;;;;;22.98;58.79;101163.59;5114252;28;20110;-60
2023/06/19 09:32:26;;;;;;;12.57;10.25;;;;;;;23.08;58.11;101185.97;5114886;28;20034;-60
2023/06/19 09:34:54;;;;;;;15.02;9.43;;;;;;;23.06;57.63;101185.31;5114912;28;20027;-60
2023/06/19 09:37:27;;;;;;;10.13;8.80;;;;;;;23.15;57.32;101193.41;5096607;28;20484;-60
2023/06/19 09:39:57;;;;;;;12.05;9.23;;;;;;;23.12;57.15;101194.63;5114631;28;20104;-60
2023/06/19 09:42:31;;;;;;;13.90;8.60;;;;;;;23.25;57.25;101197.66;5096380;28;20035;-60
2023/06/19 09:45:14;;;;;;;15.48;9.75;;;;;;;23.28;56.69;101197.31;5092230;28;20044;-60
2023/06/19 09:47:44;;;;;;;14.27;8.18;;;;;;;23.54;57.57;101185.41;5094122;28;20147;-60
2023/06/19 09:50:12;;;;;;;10.40;9.32;;;;;;;23.65;56.03;101201.34;5094112;28;20524;-60
2023/06/19 09:52:39;;;;;;;11.23;10.13;;;;;;;23.58;54.81;101194.88;5094049;28;20062;-60
2023/06/19 09:55:09;;;;;;;12.60;9.68;;;;;;;23.61;56.26;101194.53;5093948;28;20024;-60
2023/06/19 09:57:36;;;;;;;14.38;9.85;;;;;;;23.49;56.03;101201.38;5093357;28;20084;-60
2023/06/19 10:00:11;;;;;;;10.35;9.35;;;;;;;23.45;54.68;101197.31;5093434;28;20150;-60
2023/06/19 10:02:38;;;;;;;13.95;9.90;;;;;;;23.44;55.63;101192.88;5093964;28;20051;-60
2023/06/19 10:05:04;;;;;;;15.75;9.40;;;;;;;23.46;56.60;101190.84;5093762;28;20049;-60
2023/06/19 10:07:35;;;;;;;11.68;9.82;;;;;;;23.54;55.56;101209.84;5093497;28;20528;-60
2023/06/19 10:10:06;;;;;;;10.98;9.65;;;;;;;23.60;55.74;101197.44;5093575;28;20392;-60
2023/06/19 10:12:39;;;;;;;10.70;9.60;;;;;;;23.66;54.58;101197.59;5093043;28;20374;-60
2023/06/19 10:15:15;;;;;;;12.35;9.07;;;;;;;23.67;54.46;101202.00;5093122;28;20024;-66
2023/06/19 10:17:56;;;;;;;13.70;9.68;;;;;;;23.77;54.51;101196.41;5093549;28;20028;-65
2023/06/19 10:20:31;;;;;;;16.02;10.10;;;;;;;23.81;53.91;101197.75;5094447;28;20424;-68
2023/06/19 10:22:57;;;;;;;12.45;9.18;;;;;;;23.65;53.71;101214.03;5090859;28;20020;-68
2023/06/19 10:25:23;;;;;;;10.73;9.63;;;;;;;23.62;53.09;101200.81;5091511;28;20043;-66
2023/06/19 10:27:52;;;;;;;9.73;8.63;;;;;;;23.74;53.32;101205.75;5093123;28;20039;-62
2023/06/19 10:30:22;;;;;;;11.75;9.45;;;;;;;23.63;53.26;101207.97;5093328;28;20049;-64
2023/06/19 10:32:48;;;;;;;10.95;8.15;;;;;;;23.67;53.27;101212.84;5092173;28;20026;-73
2023/06/19 10:35:15;;;;;;;11.00;8.35;;;;;;;24.02;54.00;101205.31;5092007;28;20024;-65
2023/06/19 10:37:41;;;;;;;12.90;8.55;;;;;;;24.09;53.19;101211.75;5093340;28;20482;-66
2023/06/19 10:40:09;;;;;;;13.15;8.52;;;;;;;24.13;52.70;101217.69;5093082;28;20046;-66
2023/06/19 10:42:36;;;;;;;9.48;7.70;;;;;;;24.18;52.31;101207.97;5092087;28;20020;-66
2023/06/19 10:45:03;;;;;;;9.27;8.23;;;;;;;24.06;51.45;101208.50;5113054;28;20490;-64
2023/06/19 10:47:29;;;;;;;9.77;7.65;;;;;;;23.95;51.25;101207.03;5094655;28;20034;-65
2023/06/19 10:49:54;;;;;;;16.83;9.25;;;;;;;23.83;52.08;101214.72;5113450;28;20031;-65
2023/06/19 10:52:20;;;;;;;13.43;9.13;;;;;;;23.85;52.25;101211.81;5113548;28;20432;-62
2023/06/19 10:54:52;;;;;;;14.38;10.00;;;;;;;23.85;52.83;101195.53;5113158;28;20047;-63
2023/06/19 10:57:17;;;;;;;13.57;10.52;;;;;;;23.87;52.80;101204.34;5112914;28;20454;-64
2023/06/19 10:59:43;;;;;;;16.42;9.75;;;;;;;23.91;53.10;101201.09;5112948;28;20065;-63
2023/06/19 11:02:10;;;;;;;11.27;9.65;;;;;;;23.89;52.31;101191.44;5113033;28;20031;-64
2023/06/19 11:04:39;;;;;;;11.30;9.27;;;;;;;24.03;52.36;101197.00;5112909;28;20375;-64
2023/06/19 11:07:04;;;;;;;;;;;;;;;24.21;52.09;101194.03;5095065;28;20055;-63
2023/06/19 11:09:30;;;;;;;14.60;9.38;;;;;;;24.30;52.91;101199.41;5094435;28;19982;-59
2023/06/19 11:11:56;;;;;;;10.95;9.77;;;;;;;24.35;51.45;101188.84;5112944;28;20029;-59
2023/06/19 11:14:21;;;;;;;10.13;8.85;;;;;;;24.45;51.92;101187.63;5112964;28;20032;-59
2023/06/19 11:16:49;;;;;;;11.65;9.25;;;;;;;24.49;50.50;101190.81;5111968;28;20036;-59
2023/06/19 11:19:17;;;;;;;10.32;8.93;;;;;;;24.67;51.04;101179.66;5112888;28;20024;-59
2023/06/19 11:21:46;;;;;;;11.13;9.77;;;;;;;24.79;51.53;101180.06;5112841;28;20080;-59